Anaconda (3U3)
Anaconda, MT
Field Elevation: 5030
Lat: 46°09.19N  Long: 112°52.07W
CTAF/Unicom Freq: 122.8000
   
    
Weather Advisories
2017-11-21   07:43 Z
Altimeter 30.08" Hg
Wind 280° @ 9 KT
Gusts 15 KT
Temperature 2° C (36° F)
Dewpoint -5° C (23° F)
Relative Humidity 62%
Density Altitude --
Condensation Altitude 8,600 feet
Wind Chill: -2° C (28° F)
Wind and Runways
Indicated Runway = 22
Headwind = 4 kt
Crosswind = 8 kt
History
 
 
 
More Info
NOAA Forecast
 
 
About Us
Belfort Instrument
 
 
FAA Disclaimer: The data displayed is for advisory purposes only and is not to be used for flight planning or operations. For official data, please call (not available) to hear the current automated AWOS voice message.
  METAR 3U3 210743Z AUTO 28009G15KT 02/M05 A3008